Time;durP1;ratioP1;P1;durP2;ratioP2;P2;SDS_P1;SDS_P2;PMS_P1;PMS_P2;Temp;Humidity;BMP_temperature;BMP_pressure;BME280_temperature;BME280_humidity;BME280_pressure;Samples;Min_cycle;Max_cycle;Signal;HPM_P1;HPM_P2
2022/04/21 00:00:48;;;;;;;55.40;46.50;;;;;;;8.19;76.01;100075.55;109954;1263;23597;-80
2022/04/21 00:03:19;;;;;;;58.80;49.50;;;;;;;8.19;76.06;100080.89;109881;1260;21989;-80
2022/04/21 00:05:54;;;;;;;55.70;47.00;;;;;;;8.19;76.17;100078.41;109894;1261;23721;-81
2022/04/21 00:08:32;;;;;;;55.30;47.30;;;;;;;8.21;76.12;100075.73;109063;1267;22114;-81
2022/04/21 00:11:02;;;;;;;55.50;47.30;;;;;;;8.24;76.05;100073.79;109003;1270;22263;-80
2022/04/21 00:13:35;;;;;;;57.10;45.50;;;;;;;8.26;76.05;100076.79;109005;1270;21989;-80
2022/04/21 00:16:23;;;;;;;;;;;;;;;;;;;;;
2022/04/21 00:18:53;;;;;;;51.30;43.70;;;;;;;8.19;75.94;100074.71;109433;1267;23014;-80
2022/04/21 00:23:25;;;;;;;53.40;46.50;;;;;;;8.18;76.09;100076.02;109288;1267;22017;-81
2022/04/21 00:24:23;;;;;;;49.20;44.00;;;;;;;8.21;76.27;100073.28;109426;1266;22175;-80
2022/04/21 00:27:02;;;;;;;49.50;43.60;;;;;;;8.22;76.27;100078.02;109710;1259;22435;-80
2022/04/21 00:29:32;;;;;;;51.20;45.30;;;;;;;8.25;76.33;100077.45;109890;1259;23053;-81
2022/04/21 00:32:02;;;;;;;56.20;47.40;;;;;;;8.26;76.16;100078.77;109990;1259;21984;-81
2022/04/21 00:34:32;;;;;;;56.10;47.70;;;;;;;8.23;76.06;100082.31;110087;1259;23758;-81
2022/04/21 00:37:04;;;;;;;54.20;46.40;;;;;;;8.20;76.00;100083.73;110733;1251;21965;-81
2022/04/21 00:39:39;;;;;;;60.40;49.20;;;;;;;8.21;76.20;100084.44;110798;1251;21966;-81
2022/04/21 00:42:11;;;;;;;57.60;48.10;;;;;;;8.23;76.14;100084.77;110818;1251;22468;-81
2022/04/21 00:44:43;;;;;;;68.90;50.00;;;;;;;8.27;76.18;100086.55;110862;1251;23590;-81
2022/04/21 00:47:13;;;;;;;54.60;47.30;;;;;;;8.28;76.06;100086.36;110787;1255;21970;-81
2022/04/21 00:49:58;;;;;;;;;;;;;;;;;;;;;
2022/04/21 00:52:31;;;;;;;53.00;45.80;;;;;;;8.22;76.16;100085.10;110878;1251;21994;-79
2022/04/21 00:55:09;;;;;;;54.50;46.20;;;;;;;8.18;75.92;100085.35;110669;1251;21958;-79
2022/04/21 00:57:46;;;;;;;51.80;43.80;;;;;;;8.13;75.87;100084.08;110649;1255;23731;-80
2022/04/21 01:00:22;;;;;;;53.60;45.80;;;;;;;8.14;76.14;100083.14;109681;1261;22984;-80
2022/04/21 01:02:52;;;;;;;61.70;49.00;;;;;;;8.15;76.26;100079.15;110041;1259;22103;-80
2022/04/21 01:05:34;;;;;;;66.80;50.90;;;;;;;8.13;76.20;100076.77;109413;1267;23597;-80
2022/04/21 01:08:08;;;;;;;56.70;47.40;;;;;;;8.09;76.30;100077.48;109468;1266;21982;-81
2022/04/21 01:10:49;;;;;;;58.10;46.70;;;;;;;8.06;76.35;100081.84;109204;1268;22918;-82
2022/04/21 01:13:21;;;;;;;50.90;44.60;;;;;;;8.04;76.29;100082.08;109115;1268;21978;-80
2022/04/21 01:15:51;;;;;;;55.80;45.50;;;;;;;8.05;76.52;100081.84;109256;1267;22082;-79
2022/04/21 01:18:28;;;;;;;56.00;46.80;;;;;;;8.09;76.74;100081.52;109499;1264;21994;-80
2022/04/21 01:20:59;;;;;;;52.20;45.30;;;;;;;8.09;76.63;100084.82;109527;1267;22281;-81
2022/04/21 01:23:32;;;;;;;53.80;47.30;;;;;;;8.06;76.47;100079.71;109562;1260;22553;-80
2022/04/21 01:26:05;;;;;;;52.70;46.70;;;;;;;8.04;76.44;100084.54;109557;1261;23601;-80
2022/04/21 01:28:35;;;;;;;55.10;45.50;;;;;;;8.06;76.61;100085.92;109151;1263;22051;-79
2022/04/21 01:31:05;;;;;;;60.40;48.60;;;;;;;8.11;76.76;100086.65;109454;1263;21974;-79
2022/04/21 01:33:34;;;;;;;57.70;47.00;;;;;;;8.12;76.71;100084.41;109324;1262;23094;-79
2022/04/21 01:36:07;;;;;;;58.40;47.60;;;;;;;8.11;76.65;100082.08;109827;1259;21969;-80
2022/04/21 01:41:40;;;;;;;56.60;48.10;;;;;;;8.05;76.68;100085.13;109646;1264;21966;-80
2022/04/21 01:44:12;;;;;;;58.60;46.50;;;;;;;8.08;76.74;100078.47;109573;1260;22017;-81
2022/04/21 01:46:42;;;;;;;52.80;44.20;;;;;;;8.10;76.61;100078.95;109898;1260;23036;-80
2022/04/21 01:49:15;;;;;;;54.10;45.20;;;;;;;8.12;76.65;100076.31;110119;1261;21973;-81
2022/04/21 01:52:07;;;;;;;;;;;;;;;8.13;76.70;100070.48;110138;1260;21972;-80
2022/04/21 01:54:50;;;;;;;60.10;47.50;;;;;;;8.05;76.91;100073.71;110808;1253;21962;-80
2022/04/21 01:57:22;;;;;;;56.30;45.80;;;;;;;8.02;76.94;100072.42;110218;1256;23830;-80
2022/04/21 01:59:52;;;;;;;53.80;44.70;;;;;;;8.05;76.88;100068.65;110632;1257;21960;-81
2022/04/21 02:02:29;;;;;;;58.70;45.20;;;;;;;8.09;76.90;100067.73;110303;1257;22999;-80
2022/04/21 02:05:01;;;;;;;56.00;46.40;;;;;;;8.11;76.64;100067.30;110460;1257;21973;-80
2022/04/21 02:07:36;;;;;;;60.80;46.50;;;;;;;8.14;76.79;100067.86;110267;1256;23753;-80
2022/04/21 02:10:06;;;;;;;61.10;46.80;;;;;;;8.18;76.77;100073.73;110421;1256;24159;-80
2022/04/21 02:12:38;;;;;;;;;;;;;;;8.20;76.62;100072.82;109851;1261;22759;-80
2022/04/21 02:15:09;;;;;;;52.60;44.80;;;;;;;8.14;76.74;100072.46;110299;1256;22964;-80
2022/04/21 02:17:39;;;;;;;49.80;43.90;;;;;;;8.12;76.68;100066.39;109949;1260;22301;-80
2022/04/21 02:20:15;;;;;;;49.10;43.40;;;;;;;8.12;76.54;100065.42;109883;1262;21994;-80
2022/04/21 02:22:45;;;;;;;56.00;44.90;;;;;;;8.16;76.57;100064.71;109975;1260;23789;-80
2022/04/21 02:25:16;;;;;;;59.20;48.80;;;;;;;8.19;76.34;100064.23;109265;1265;21990;-80
2022/04/21 02:27:50;;;;;;;61.60;48.50;;;;;;;8.18;76.26;100061.63;109187;1265;21990;-80
2022/04/21 02:30:31;;;;;;;61.20;48.80;;;;;;;8.17;76.33;100065.42;109510;1261;21983;-80
2022/04/21 02:33:02;;;;;;;62.80;48.50;;;;;;;8.17;76.42;100074.27;109811;1261;23573;-80
2022/04/21 02:35:32;;;;;;;66.70;52.40;;;;;;;8.17;76.48;100073.88;110015;1256;21979;-79
2022/04/21 02:38:01;;;;;;;64.20;49.80;;;;;;;8.20;76.33;100074.95;110165;1255;22031;-80
2022/04/21 02:40:45;;;;;;;;;;;;;;;8.21;76.24;100077.51;110676;1254;21957;-80
2022/04/21 02:43:15;;;;;;;68.20;51.50;;;;;;;8.15;76.45;100077.97;110385;1255;22566;-80
2022/04/21 02:45:44;;;;;;;68.20;53.20;;;;;;;8.14;76.48;100085.40;110623;1254;21958;-81
2022/04/21 02:48:16;;;;;;;72.60;54.50;;;;;;;8.15;76.43;100090.77;110602;1254;23092;-80
2022/04/21 02:50:50;;;;;;;67.60;50.60;;;;;;;8.14;76.26;100089.48;110620;1254;24456;-80
2022/04/21 02:57:20;;;;;;;64.10;49.80;;;;;;;8.13;76.08;100097.13;110611;1254;22434;-81
2022/04/21 02:59:13;;;;;;;66.00;50.20;;;;;;;8.11;76.26;100099.63;110666;1254;23119;-79
2022/04/21 03:01:47;;;;;;;64.10;50.90;;;;;;;8.11;76.50;100097.36;110013;1259;22669;-79
2022/04/21 03:04:17;;;;;;;65.60;49.80;;;;;;;8.15;76.88;100097.75;109690;1264;21970;-80
2022/04/21 03:06:47;;;;;;;58.90;48.40;;;;;;;8.21;76.99;100093.44;109482;1264;22039;-81
2022/04/21 03:09:21;;;;;;;61.10;46.80;;;;;;;8.28;76.81;100091.16;109594;1266;23583;-83
2022/04/21 03:11:53;;;;;;;63.40;49.50;;;;;;;8.34;76.92;100090.36;109216;1267;21980;-81
2022/04/21 03:14:35;;;;;;;56.60;45.80;;;;;;;8.37;76.86;100088.79;109049;1270;21985;-79
2022/04/21 03:17:09;;;;;;;61.10;46.40;;;;;;;8.41;76.84;100088.45;108779;1270;23747;-79
2022/04/21 03:19:39;;;;;;;56.80;45.80;;;;;;;8.44;76.70;100086.64;108726;1270;22120;-79
2022/04/21 03:25:04;;;;;;;60.00;44.00;;;;;;;8.52;76.57;100085.66;109056;1265;23676;-80
2022/04/21 03:27:34;;;;;;;60.50;46.60;;;;;;;8.50;76.18;100082.25;109670;1260;22001;-79
2022/04/21 03:30:08;;;;;;;62.50;44.60;;;;;;;8.46;75.97;100077.73;109201;1267;22782;-79
2022/04/21 03:32:39;;;;;;;50.00;41.90;;;;;;;8.42;75.75;100076.38;109594;1260;21978;-79
2022/04/21 03:35:09;;;;;;;49.50;41.70;;;;;;;8.39;75.53;100078.40;108946;1270;21978;-79
2022/04/21 03:37:43;;;;;;;59.30;45.30;;;;;;;8.37;75.63;100081.99;108713;1270;21982;-80
2022/04/21 03:40:22;;;;;;;62.30;45.80;;;;;;;8.33;75.62;100080.06;108994;1270;21994;-80
2022/04/21 03:42:51;;;;;;;56.30;44.70;;;;;;;8.29;75.53;100077.91;108401;1276;22007;-80
2022/04/21 03:45:20;;;;;;;53.00;44.20;;;;;;;8.25;75.62;100076.16;108709;1267;23779;-79
2022/04/21 03:47:52;;;;;;;53.70;44.20;;;;;;;8.23;75.69;100073.92;109029;1263;23225;-80
2022/04/21 03:50:25;;;;;;;53.80;42.50;;;;;;;8.21;75.66;100071.54;109376;1263;23035;-79
2022/04/21 03:52:59;;;;;;;55.80;44.30;;;;;;;8.22;75.79;100073.02;109542;1264;22081;-80
2022/04/21 03:55:28;;;;;;;49.80;41.90;;;;;;;8.24;75.90;100071.00;109096;1264;22225;-80
2022/04/21 03:57:58;;;;;;;51.80;43.10;;;;;;;8.25;75.86;100070.61;109416;1267;23666;-80
2022/04/21 04:00:27;;;;;;;47.50;38.30;;;;;;;8.25;75.86;100076.03;109668;1253;22424;-80
2022/04/21 04:02:57;;;;;;;45.40;39.90;;;;;;;8.25;75.85;100076.55;110354;1254;22778;-80
2022/04/21 04:05:30;;;;;;;48.60;40.80;;;;;;;8.26;75.89;100077.98;109809;1260;23842;-79
2022/04/21 04:10:53;;;;;;;47.60;42.00;;;;;;;8.30;75.81;100082.70;110153;1259;24398;-80
2022/04/21 04:13:24;;;;;;;49.80;42.30;;;;;;;8.31;75.78;100082.43;110339;1256;22781;-80
2022/04/21 04:15:57;;;;;;;47.30;41.30;;;;;;;8.30;75.76;100083.59;110535;1255;21973;-79
2022/04/21 04:18:26;;;;;;;50.10;41.10;;;;;;;8.31;75.87;100084.54;109882;1260;22556;-80
2022/04/21 04:20:59;;;;;;;42.50;38.00;;;;;;;8.34;75.79;100087.50;109930;1260;23600;-80
2022/04/21 04:23:29;;;;;;;45.80;39.90;;;;;;;8.35;75.48;100087.94;109638;1261;21967;-80
2022/04/21 04:25:58;;;;;;;49.50;42.60;;;;;;;8.34;75.42;100090.00;109495;1262;22022;-81
2022/04/21 04:28:27;;;;;;;49.70;44.40;;;;;;;8.34;75.55;100092.45;109445;1263;21980;-80
2022/04/21 04:31:01;;;;;;;50.60;45.00;;;;;;;8.34;75.51;100094.75;109508;1264;23597;-81
2022/04/21 04:33:33;;;;;;;51.40;45.30;;;;;;;8.34;75.51;100098.57;109061;1266;23071;-81
2022/04/21 04:36:03;;;;;;;57.40;46.40;;;;;;;8.35;75.43;100101.43;109184;1267;22106;-81
2022/04/21 04:38:34;;;;;;;68.60;61.50;;;;;;;8.37;75.29;100101.61;108595;1276;22009;-81
2022/04/21 04:43:56;;;;;;;63.10;50.20;;;;;;;8.34;75.21;100098.63;109027;1267;21998;-81
2022/04/21 04:46:35;;;;;;;60.90;46.50;;;;;;;8.32;75.32;100098.95;109168;1267;23672;-81
2022/04/21 04:49:09;;;;;;;51.60;44.90;;;;;;;8.31;75.34;100100.10;109608;1261;22010;-80
2022/04/21 04:51:43;;;;;;;56.10;43.10;;;;;;;8.33;75.32;100105.36;110221;1256;22762;-79
2022/04/21 04:54:15;;;;;;;56.90;44.90;;;;;;;8.37;75.35;100110.90;110503;1254;23470;-81
2022/04/21 04:56:47;;;;;;;53.80;43.60;;;;;;;8.40;75.31;100116.21;110141;1259;22068;-79
2022/04/21 04:59:17;;;;;;;50.90;41.90;;;;;;;8.39;75.02;100117.79;110075;1259;22245;-80
2022/04/21 05:01:49;;;;;;;47.60;42.00;;;;;;;8.36;74.98;100119.95;110139;1261;22933;-80
2022/04/21 05:04:21;;;;;;;48.20;42.60;;;;;;;8.37;75.07;100121.15;110630;1254;21963;-81
2022/04/21 05:06:57;;;;;;;49.40;42.40;;;;;;;8.39;75.12;100126.37;109929;1260;23730;-80
2022/04/21 05:09:26;;;;;;;52.40;42.80;;;;;;;8.44;75.09;100126.02;109642;1261;21969;-80
2022/04/21 05:11:59;;;;;;;50.40;41.40;;;;;;;8.48;75.13;100124.87;109473;1263;21979;-80
2022/04/21 05:14:46;;;;;;;50.30;42.10;;;;;;;8.48;75.01;100125.23;110018;1257;23013;-79
2022/04/21 05:17:15;;;;;;;47.50;39.70;;;;;;;8.47;74.93;100119.75;110285;1257;23029;-79
2022/04/21 05:20:03;;;;;;;49.80;41.40;;;;;;;8.46;74.94;100119.47;109555;1262;22756;-79
2022/04/21 05:22:39;;;;;;;45.70;39.90;;;;;;;8.48;74.88;100119.30;109412;1262;22083;-79
2022/04/21 05:25:11;;;;;;;57.50;44.00;;;;;;;8.53;75.01;100117.79;109586;1259;23768;-80
2022/04/21 05:27:41;;;;;;;53.70;45.50;;;;;;;8.57;75.00;100125.19;109816;1260;21960;-80
2022/04/21 05:33:03;;;;;;;49.00;42.90;;;;;;;8.59;74.83;100130.96;110360;1255;21966;-79
2022/04/21 05:35:39;;;;;;;51.00;43.30;;;;;;;8.61;74.67;100134.80;110330;1255;22870;-79
2022/04/21 05:38:11;;;;;;;53.40;44.20;;;;;;;8.65;74.78;100131.37;109857;1254;22065;-81
2022/04/21 05:40:44;;;;;;;56.00;46.20;;;;;;;8.70;74.67;100131.90;110480;1254;23063;-79
2022/04/21 05:43:20;;;;;;;57.30;49.00;;;;;;;8.75;74.76;100133.70;110740;1252;23807;-79
2022/04/21 05:45:55;;;;;;;56.20;49.50;;;;;;;8.76;74.47;100132.31;110524;1254;22466;-79
2022/04/21 05:48:42;;;;;;;55.90;47.40;;;;;;;8.74;74.16;100129.73;110179;1260;22043;-80
2022/04/21 05:51:15;;;;;;;64.90;48.00;;;;;;;8.77;74.34;100129.61;110076;1259;21962;-79
2022/04/21 05:53:52;;;;;;;61.20;49.50;;;;;;;8.82;74.33;100129.64;109976;1260;23053;-79
2022/04/21 05:56:25;;;;;;;60.30;47.50;;;;;;;8.85;74.26;100126.98;109994;1258;22062;-79
2022/04/21 05:58:55;;;;;;;62.40;51.30;;;;;;;8.88;74.16;100126.87;109584;1263;21980;-81
2022/04/21 06:01:30;;;;;;;62.60;53.50;;;;;;;8.90;74.00;100124.90;109597;1263;22069;-79
2022/04/21 06:03:59;;;;;;;59.20;51.50;;;;;;;8.92;73.82;100121.45;109299;1263;21972;-79
2022/04/21 06:06:28;;;;;;;56.10;48.00;;;;;;;8.95;73.87;100122.73;109569;1259;21975;-78
2022/04/21 06:08:57;;;;;;;62.80;50.40;;;;;;;9.00;73.73;100120.13;109570;1265;22860;-81
2022/04/21 06:11:27;;;;;;;55.10;48.10;;;;;;;9.05;73.68;100117.44;109118;1265;22014;-78
2022/04/21 06:14:00;;;;;;;61.60;50.20;;;;;;;9.10;73.66;100114.61;109240;1263;21981;-78
2022/04/21 06:16:44;;;;;;;53.80;46.30;;;;;;;9.12;73.49;100120.91;109831;1257;24306;-78
2022/04/21 06:19:13;;;;;;;50.30;43.60;;;;;;;9.15;73.29;100124.33;110227;1257;23045;-78
2022/04/21 06:21:42;;;;;;;55.20;47.90;;;;;;;9.20;73.27;100121.54;110292;1257;21956;-78
2022/04/21 06:24:17;;;;;;;58.50;49.00;;;;;;;9.27;73.04;100121.83;110481;1257;23151;-78
2022/04/21 06:26:46;;;;;;;55.10;48.30;;;;;;;9.32;73.02;100124.23;109674;1256;23651;-77
2022/04/21 06:29:16;;;;;;;56.10;48.80;;;;;;;9.35;72.87;100131.63;110034;1256;23801;-78
2022/04/21 06:31:45;;;;;;;56.30;48.30;;;;;;;9.35;72.59;100138.02;110298;1256;22001;-79
2022/04/21 06:34:16;;;;;;;57.90;48.30;;;;;;;9.38;72.51;100142.23;110213;1256;21994;-78
2022/04/21 06:36:47;;;;;;;59.10;49.30;;;;;;;9.45;72.39;100142.58;110550;1256;21980;-78
2022/04/21 06:39:23;;;;;;;62.40;50.60;;;;;;;9.52;72.47;100141.92;110652;1255;23712;-79
2022/04/21 06:41:53;;;;;;;58.10;50.20;;;;;;;9.60;72.33;100140.90;110768;1256;22573;-79
2022/04/21 06:50:05;;;;;;;62.90;52.00;;;;;;;9.65;71.36;100145.81;110399;1259;21965;-79
2022/04/21 06:52:34;;;;;;;63.10;52.30;;;;;;;9.65;71.13;100147.89;110411;1258;23420;-80
2022/04/21 06:55:09;;;;;;;62.90;52.90;;;;;;;9.69;71.15;100151.55;110467;1259;22315;-78
2022/04/21 06:57:40;;;;;;;67.80;56.90;;;;;;;9.76;71.28;100150.96;109897;1260;21947;-77
2022/04/21 07:00:16;;;;;;;65.30;54.90;;;;;;;9.80;71.15;100153.00;110363;1259;22017;-78
2022/04/21 07:02:51;;;;;;;62.90;51.50;;;;;;;9.83;70.98;100155.31;110482;1253;22058;-79
2022/04/21 07:05:27;;;;;;;61.50;51.60;;;;;;;9.83;70.57;100153.56;110587;1253;23030;-81
2022/04/21 07:07:56;;;;;;;68.80;56.00;;;;;;;9.84;70.61;100156.20;110842;1257;22087;-80
2022/04/21 07:10:26;;;;;;;66.70;55.80;;;;;;;9.91;70.69;100158.30;110548;1259;23719;-79
2022/04/21 07:12:58;;;;;;;65.70;53.30;;;;;;;9.96;70.57;100162.02;110008;1264;23131;-80
2022/04/21 07:15:30;;;;;;;61.20;51.40;;;;;;;9.95;70.09;100163.53;109597;1267;22075;-80
2022/04/21 07:18:00;;;;;;;64.70;53.10;;;;;;;9.90;69.77;100167.65;110238;1262;21972;-82
2022/04/21 07:20:36;;;;;;;70.60;56.30;;;;;;;9.94;70.05;100170.41;109849;1262;21977;-78
2022/04/21 07:23:07;;;;;;;62.00;50.60;;;;;;;10.01;70.05;100172.81;109748;1266;22521;-80
2022/04/21 07:25:39;;;;;;;63.90;50.40;;;;;;;10.08;69.89;100169.58;109544;1270;22036;-80
2022/04/21 07:28:13;;;;;;;;;;;;;;;10.16;69.93;100167.63;109471;1268;21975;-78
2022/04/21 07:30:43;;;;;;;65.00;51.80;;;;;;;10.17;70.09;100169.55;109515;1264;21982;-76
2022/04/21 07:33:17;;;;;;;62.60;53.00;;;;;;;10.22;70.12;100167.05;109700;1260;21967;-82
2022/04/21 07:35:48;;;;;;;57.10;49.30;;;;;;;10.25;69.82;100167.60;110224;1262;21987;-80
2022/04/21 07:38:18;;;;;;;59.70;49.20;;;;;;;10.26;69.45;100169.29;109873;1264;22026;-80
2022/04/21 07:40:50;;;;;;;118.80;56.10;;;;;;;10.25;69.07;100167.77;110169;1259;23698;-76
2022/04/21 07:43:24;;;;;;;67.00;54.10;;;;;;;10.29;69.20;100166.66;110339;1256;24278;-77
2022/04/21 07:45:53;;;;;;;62.70;54.70;;;;;;;10.38;69.54;100168.81;109782;1261;22034;-80
2022/04/21 07:49:44;;;;;;;70.40;56.60;;;;;;;10.49;69.68;100170.59;110362;1261;22088;-82
2022/04/21 07:51:24;;;;;;;;;;;;;;;10.59;69.50;100171.21;109869;1264;21950;-79
2022/04/21 07:54:09;;;;;;;71.30;53.60;;;;;;;10.57;69.27;100170.20;109247;1266;23006;-79
2022/04/21 07:56:56;;;;;;;65.50;52.00;;;;;;;10.57;69.09;100172.23;109530;1265;21974;-79
2022/04/21 07:59:44;;;;;;;63.30;52.30;;;;;;;10.62;68.91;100170.36;109323;1265;21983;-79
2022/04/21 08:02:16;;;;;;;60.20;49.10;;;;;;;10.69;68.66;100174.15;109460;1267;21989;-78
2022/04/21 08:04:51;;;;;;;57.00;48.20;;;;;;;10.77;68.62;100168.27;109308;1265;23049;-78
2022/04/21 08:07:23;;;;;;;58.90;49.70;;;;;;;10.82;68.44;100169.80;109159;1267;22771;-76
2022/04/21 08:09:53;;;;;;;58.10;50.30;;;;;;;10.88;68.29;100172.48;109623;1256;22740;-76
2022/04/21 08:12:24;;;;;;;57.10;47.90;;;;;;;10.88;67.69;100171.85;110762;1250;22061;-80
2022/04/21 08:14:54;;;;;;;53.80;47.80;;;;;;;10.84;67.41;100175.64;110817;1250;21976;-75
2022/04/21 08:17:23;;;;;;;58.90;50.30;;;;;;;10.82;67.38;100182.16;110825;1250;23742;-75
2022/04/21 08:19:52;;;;;;;53.70;45.40;;;;;;;10.79;67.12;100185.81;110926;1250;21955;-73
2022/04/21 08:22:21;;;;;;;53.50;47.50;;;;;;;10.77;67.19;100181.27;110982;1250;21952;-74
2022/04/21 08:33:32;;;;;;;66.10;53.20;;;;;;;10.60;67.98;100185.14;110696;1253;23013;-76
2022/04/21 08:36:03;;;;;;;66.50;55.90;;;;;;;10.60;68.19;100182.70;110474;1253;21972;-77
2022/04/21 08:38:33;;;;;;;68.70;53.80;;;;;;;10.65;68.48;100177.55;110682;1253;22198;-77
2022/04/21 08:41:07;;;;;;;65.40;53.10;;;;;;;10.70;68.47;100174.48;110449;1253;22053;-78
2022/04/21 08:43:37;;;;;;;68.30;54.60;;;;;;;10.74;68.49;100174.20;110555;1253;21982;-79
2022/04/21 08:46:08;;;;;;;69.30;57.40;;;;;;;10.77;68.66;100172.63;110420;1250;24269;-77
2022/04/21 08:48:41;;;;;;;66.00;55.60;;;;;;;10.78;68.54;100171.35;110657;1253;21972;-77
2022/04/21 08:51:12;;;;;;;67.20;55.30;;;;;;;10.79;68.56;100178.04;110549;1253;21961;-78
2022/04/21 08:53:43;;;;;;;73.70;58.90;;;;;;;10.82;68.51;100176.54;110482;1256;23172;-76
2022/04/21 08:56:13;;;;;;;71.70;56.10;;;;;;;10.84;68.60;100178.08;110516;1253;22775;-77
2022/04/21 08:58:42;;;;;;;72.90;53.20;;;;;;;10.88;68.75;100179.63;110550;1253;24374;-77
2022/04/21 09:01:12;;;;;;;63.80;54.00;;;;;;;10.89;68.62;100178.67;110629;1253;21960;-78
2022/04/21 09:03:48;;;;;;;63.00;53.20;;;;;;;10.87;68.43;100180.55;110504;1253;21958;-77
2022/04/21 09:06:22;;;;;;;59.70;51.10;;;;;;;10.83;68.41;100182.02;110541;1251;23762;-76
2022/04/21 09:09:21;;;;;;;59.10;49.30;;;;;;;10.83;68.66;100181.89;110954;1250;22019;-77
2022/04/21 09:11:53;;;;;;;63.60;51.60;;;;;;;10.85;69.10;100182.83;110661;1253;22429;-76
2022/04/21 09:14:23;;;;;;;60.20;50.20;;;;;;;10.88;69.02;100179.39;110595;1254;21958;-77
2022/04/21 09:16:52;;;;;;;63.30;50.10;;;;;;;10.92;69.33;100180.88;110678;1254;22055;-77
2022/04/21 09:19:22;;;;;;;56.60;50.30;;;;;;;10.95;69.22;100179.83;110594;1254;23024;-77
2022/04/21 09:21:53;;;;;;;60.70;50.90;;;;;;;10.93;68.99;100175.30;110545;1253;22451;-78
2022/04/21 09:24:30;;;;;;;61.30;53.70;;;;;;;10.91;69.01;100175.17;109966;1259;23596;-78
2022/04/21 09:27:00;;;;;;;59.40;49.70;;;;;;;10.91;69.16;100174.67;109996;1259;21987;-77
2022/04/21 09:29:32;;;;;;;53.30;47.60;;;;;;;10.93;69.28;100171.92;110248;1254;21955;-77
2022/04/21 09:32:04;;;;;;;52.60;46.40;;;;;;;10.96;69.33;100171.02;110469;1255;22030;-77
2022/04/21 09:34:37;;;;;;;56.50;50.40;;;;;;;11.01;69.56;100169.09;110403;1254;22313;-77
2022/04/21 09:37:10;;;;;;;53.70;47.90;;;;;;;11.06;69.55;100171.48;110436;1255;22212;-77
2022/04/21 09:39:40;;;;;;;52.40;46.50;;;;;;;11.10;69.49;100170.36;110474;1254;22035;-77
2022/04/21 09:42:09;;;;;;;48.20;42.50;;;;;;;11.13;69.50;100167.60;110444;1250;21999;-77
2022/04/21 09:47:30;;;;;;;43.00;38.00;;;;;;;11.26;69.45;100164.98;110898;1249;23615;-79
2022/04/21 09:50:18;;;;;;;43.60;39.20;;;;;;;11.29;69.07;100166.55;110761;1250;21972;-78
2022/04/21 09:52:53;;;;;;;43.70;38.70;;;;;;;11.32;69.08;100165.05;110613;1254;24987;-79
2022/04/21 09:55:27;;;;;;;41.20;37.00;;;;;;;11.36;69.05;100160.02;110419;1255;23043;-78
2022/04/21 09:58:06;;;;;;;42.70;38.50;;;;;;;11.40;68.89;100158.23;110343;1254;21969;-77
2022/04/21 10:00:38;;;;;;;42.70;38.40;;;;;;;11.43;68.88;100161.25;110376;1254;21975;-78
2022/04/21 10:03:10;;;;;;;44.10;39.70;;;;;;;11.49;68.93;100158.13;110488;1254;23575;-78
2022/04/21 10:05:40;;;;;;;43.20;38.60;;;;;;;11.56;68.88;100157.24;110380;1254;23030;-78
2022/04/21 10:08:10;;;;;;;41.90;37.30;;;;;;;11.64;68.79;100155.95;110293;1255;21955;-78
2022/04/21 10:10:51;;;;;;;42.80;38.30;;;;;;;11.70;68.50;100159.00;110484;1250;21967;-78
2022/04/21 10:13:21;;;;;;;49.40;43.80;;;;;;;11.72;68.41;100153.42;110801;1249;23714;-77
2022/04/21 10:15:52;;;;;;;46.50;41.50;;;;;;;11.73;68.22;100156.66;110842;1249;21959;-78
2022/04/21 10:18:21;;;;;;;49.50;44.30;;;;;;;11.74;68.10;100160.09;110857;1249;21966;-77
2022/04/21 10:20:56;;;;;;;47.80;42.70;;;;;;;11.80;68.22;100159.94;110765;1249;23080;-78
2022/04/21 10:23:28;;;;;;;40.20;36.00;;;;;;;11.90;68.34;100158.68;111005;1249;21969;-78
2022/04/21 10:26:03;;;;;;;41.40;37.10;;;;;;;11.99;68.28;100158.05;110809;1250;23752;-78
2022/04/21 10:28:56;;;;;;;39.50;35.60;;;;;;;12.00;67.69;100161.05;110719;1249;22881;-78
2022/04/21 10:31:45;;;;;;;43.00;38.50;;;;;;;11.97;67.27;100161.65;110654;1250;21962;-78
2022/04/21 10:34:34;;;;;;;41.80;37.40;;;;;;;11.94;67.44;100158.84;110893;1249;22997;-78
2022/04/21 10:37:24;;;;;;;37.50;33.70;;;;;;;11.99;67.63;100158.26;110878;1250;24414;-77
2022/04/21 10:40:11;;;;;;;34.20;30.70;;;;;;;12.03;67.52;100157.05;110417;1256;23580;-77
2022/04/21 10:42:52;;;;;;;33.60;30.30;;;;;;;12.07;67.15;100156.62;110366;1254;22072;-78
2022/04/21 10:45:23;;;;;;;32.80;29.60;;;;;;;12.11;67.07;100155.08;110493;1254;23938;-79
2022/04/21 10:48:12;;;;;;;33.10;29.20;;;;;;;12.14;67.03;100151.75;110464;1253;23049;-77
2022/04/21 10:50:45;;;;;;;31.50;28.60;;;;;;;12.16;67.00;100152.52;110560;1254;23666;-77
2022/04/21 10:59:14;;;;;;;31.10;28.10;;;;;;;12.22;66.23;100151.25;110551;1254;22585;-78
2022/04/21 11:01:54;;;;;;;31.00;27.50;;;;;;;12.27;66.05;100152.48;110496;1256;23040;-78
2022/04/21 11:04:24;;;;;;;30.60;27.50;;;;;;;12.34;66.05;100156.21;110000;1261;21978;-77
2022/04/21 11:07:08;;;;;;;30.00;27.20;;;;;;;12.39;65.96;100155.59;109735;1260;21976;-78
2022/04/21 11:09:41;;;;;;;29.70;26.70;;;;;;;12.44;65.84;100157.28;109388;1265;21975;-78
2022/04/21 11:12:46;;;;;;;29.30;26.20;;;;;;;12.48;65.62;100161.45;110110;1259;23065;-78
2022/04/21 11:15:47;;;;;;;28.10;25.50;;;;;;;12.52;65.69;100159.11;110179;1259;23139;-77
2022/04/21 11:18:27;;;;;;;29.50;26.20;;;;;;;12.59;65.33;100158.33;110292;1259;21976;-77
2022/04/21 11:21:28;;;;;;;35.30;31.50;;;;;;;12.61;64.78;100161.37;110170;1259;23055;-77
2022/04/21 11:23:57;;;;;;;32.20;29.00;;;;;;;12.60;64.68;100161.31;110475;1253;21979;-77
2022/04/21 11:26:28;;;;;;;33.70;30.50;;;;;;;12.58;64.70;100156.96;110167;1260;22484;-78
2022/04/21 11:29:03;;;;;;;32.90;29.70;;;;;;;12.56;64.58;100159.59;110293;1256;23791;-77
2022/04/21 11:31:33;;;;;;;30.20;27.40;;;;;;;12.54;64.65;100159.77;110224;1259;23726;-77
2022/04/21 11:34:02;;;;;;;32.70;29.30;;;;;;;12.52;64.67;100156.28;109469;1264;21988;-78
2022/04/21 11:36:38;;;;;;;31.00;27.90;;;;;;;12.52;64.88;100157.19;109528;1263;23115;-78
2022/04/21 11:39:08;;;;;;;31.40;28.40;;;;;;;12.55;65.11;100156.33;109515;1265;21980;-79
2022/04/21 11:41:48;;;;;;;32.30;28.90;;;;;;;12.62;65.35;100157.17;109328;1264;23088;-76
2022/04/21 11:44:25;;;;;;;30.80;27.90;;;;;;;12.69;65.22;100154.73;109461;1259;22027;-77
2022/04/21 11:46:54;;;;;;;31.20;27.90;;;;;;;12.75;65.06;100157.85;110007;1259;22078;-77
2022/04/21 11:49:23;;;;;;;31.10;27.90;;;;;;;12.77;64.73;100156.25;110223;1256;22427;-77
2022/04/21 11:51:53;;;;;;;28.70;26.00;;;;;;;12.76;64.27;100154.36;110328;1250;309180;-77
2022/04/21 11:54:22;;;;;;;29.20;26.40;;;;;;;12.71;64.32;100158.10;110678;1250;21976;-78
2022/04/21 11:56:52;;;;;;;30.10;27.10;;;;;;;12.69;64.48;100159.73;110913;1250;22770;-77
2022/04/21 11:59:34;;;;;;;40.50;36.70;;;;;;;12.69;64.62;100162.59;110813;1250;22225;-78
2022/04/21 12:07:42;;;;;;;27.80;25.10;;;;;;;12.64;64.68;100166.13;110902;1250;23007;-77
2022/04/21 12:10:11;;;;;;;28.70;26.00;;;;;;;12.62;64.86;100165.05;110887;1250;23642;-78
2022/04/21 12:12:40;;;;;;;28.40;25.90;;;;;;;12.59;64.97;100163.75;110794;1250;22030;-77
2022/04/21 12:15:09;;;;;;;29.60;26.70;;;;;;;12.55;64.97;100162.47;110976;1250;21963;-78
2022/04/21 12:17:39;;;;;;;29.10;26.30;;;;;;;12.50;64.94;100159.88;110760;1250;22319;-79
2022/04/21 12:20:08;;;;;;;28.60;25.70;;;;;;;12.45;65.16;100158.88;110788;1250;23003;-79
2022/04/21 12:22:39;;;;;;;29.00;26.20;;;;;;;12.42;65.52;100156.64;110951;1250;23078;-79
2022/04/21 12:25:12;;;;;;;27.70;25.00;;;;;;;12.36;65.38;100155.59;110802;1250;21958;-79